createdAt,value
2018-08-09T00:00:29.456Z,20.85
2018-08-09T00:01:29.430Z,20.92
2018-08-09T00:02:29.330Z,20.88
2018-08-09T00:03:29.293Z,20.85
2018-08-09T00:04:29.243Z,20.84
2018-08-09T00:05:29.242Z,20.70
2018-08-09T00:06:29.155Z,20.69
2018-08-09T00:07:29.115Z,20.65
2018-08-09T00:08:29.073Z,20.59
2018-08-09T00:09:29.035Z,20.58
2018-08-09T00:10:29.016Z,20.58
2018-08-09T00:11:28.945Z,20.62
2018-08-09T00:12:28.900Z,20.58
2018-08-09T00:13:28.889Z,20.70
2018-08-09T00:14:28.816Z,20.58
2018-08-09T00:15:28.769Z,20.62
2018-08-09T00:16:28.760Z,20.59
2018-08-09T00:17:28.684Z,20.59
2018-08-09T00:18:28.643Z,20.60
2018-08-09T00:19:28.598Z,20.63
2018-08-09T00:20:28.557Z,20.52
2018-08-09T00:21:28.544Z,20.41
2018-08-09T00:22:28.473Z,20.39
2018-08-09T00:23:28.470Z,20.34
2018-08-09T00:24:28.393Z,20.29
2018-08-09T00:25:28.341Z,20.25
2018-08-09T00:26:28.301Z,20.11
2018-08-09T00:27:28.252Z,20.07
2018-08-09T00:28:28.251Z,20.04
2018-08-09T00:29:28.169Z,19.99
2018-08-09T00:30:28.129Z,19.99
2018-08-09T00:31:28.082Z,20.02
2018-08-09T00:32:28.042Z,19.99
2018-08-09T00:33:28.030Z,20.04
2018-08-09T00:34:27.953Z,20.00
2018-08-09T00:35:27.911Z,20.10
2018-08-09T00:36:27.869Z,20.03
2018-08-09T00:37:27.822Z,20.10
2018-08-09T00:38:27.811Z,19.89
2018-08-09T00:39:27.767Z,19.88
2018-08-09T00:40:27.692Z,19.94
2018-08-09T00:41:27.652Z,19.77
2018-08-09T00:42:27.609Z,19.91
2018-08-09T00:43:27.562Z,19.88
2018-08-09T00:44:27.550Z,19.82
2018-08-09T00:45:27.474Z,19.84
2018-08-09T00:46:27.434Z,19.74
2018-08-09T00:47:27.391Z,19.84
2018-08-09T00:48:27.345Z,19.82
2018-08-09T00:49:27.337Z,19.82
2018-08-09T00:50:27.290Z,19.81
2018-08-09T00:51:27.217Z,19.74
2018-08-09T00:52:27.172Z,19.73
2018-08-09T00:53:27.128Z,19.73
2018-08-09T00:54:27.085Z,19.84
2018-08-09T00:55:27.080Z,19.76
2018-08-09T00:56:26.998Z,19.74
2018-08-09T00:57:26.954Z,19.77
2018-08-09T00:58:26.915Z,19.71
2018-08-09T00:59:26.867Z,19.76
2018-08-09T01:00:26.862Z,19.70
2018-08-09T01:01:26.782Z,19.64
2018-08-09T01:02:26.741Z,19.71
2018-08-09T01:03:26.726Z,19.62
2018-08-09T01:04:26.653Z,19.59
2018-08-09T01:05:26.611Z,19.55
2018-08-09T01:06:26.566Z,19.56
2018-08-09T01:07:26.564Z,19.62
2018-08-09T01:08:26.477Z,19.58
2018-08-09T01:09:26.436Z,19.56
2018-08-09T01:10:26.394Z,19.58
2018-08-09T01:11:26.347Z,19.56
2018-08-09T01:12:26.336Z,19.48
2018-08-09T01:13:26.298Z,19.51
2018-08-09T01:14:26.218Z,19.48
2018-08-09T01:15:26.172Z,19.45
2018-08-09T01:16:26.131Z,19.44
2018-08-09T01:17:26.085Z,19.48
2018-08-09T01:18:26.074Z,19.49
2018-08-09T01:19:25.998Z,19.44
2018-08-09T01:20:25.983Z,19.36
2018-08-09T01:21:25.908Z,19.27
2018-08-09T01:22:25.867Z,19.27
2018-08-09T01:23:25.824Z,19.27
2018-08-09T01:24:25.816Z,19.29
2018-08-09T01:25:25.732Z,19.26
2018-08-09T01:26:25.691Z,19.09
2018-08-09T01:27:25.645Z,19.09
2018-08-09T01:28:25.604Z,19.08
2018-08-09T01:29:25.601Z,19.00
2018-08-09T01:30:25.515Z,18.89
2018-08-09T01:31:25.471Z,18.95
2018-08-09T01:32:25.427Z,18.90
2018-08-09T01:33:25.382Z,18.93
2018-08-09T01:34:25.380Z,18.96
2018-08-09T01:35:25.294Z,18.83
2018-08-09T01:36:25.252Z,18.99
2018-08-09T01:37:25.208Z,18.99
2018-08-09T01:38:25.165Z,18.88
2018-08-09T01:39:25.152Z,18.89
2018-08-09T01:40:25.075Z,18.90
2018-08-09T01:41:25.033Z,18.88
2018-08-09T01:42:24.989Z,18.89
2018-08-09T01:43:24.977Z,18.83
2018-08-09T01:44:24.899Z,18.75
2018-08-09T01:45:24.888Z,18.92
2018-08-09T01:46:24.814Z,18.75
2018-08-09T01:47:24.766Z,18.77
2018-08-09T01:48:24.723Z,18.88
2018-08-09T01:49:24.687Z,18.84
2018-08-09T01:50:24.669Z,18.83
2018-08-09T01:51:24.591Z,18.86
2018-08-09T01:52:24.546Z,18.86
2018-08-09T01:53:24.504Z,18.77
2018-08-09T01:54:24.460Z,18.86
2018-08-09T01:55:24.457Z,18.80
2018-08-09T01:56:24.371Z,18.81
2018-08-09T01:57:24.331Z,18.80
2018-08-09T01:58:24.282Z,18.75
2018-08-09T01:59:24.239Z,18.89
2018-08-09T02:00:24.225Z,18.75
2018-08-09T02:01:24.150Z,18.80
2018-08-09T02:02:24.106Z,18.77
2018-08-09T02:03:24.063Z,18.78
2018-08-09T02:04:24.019Z,18.74
2018-08-09T02:05:24.007Z,18.73
2018-08-09T02:06:23.932Z,18.71
2018-08-09T02:07:23.885Z,18.73
2018-08-09T02:08:23.838Z,18.71
2018-08-09T02:09:23.799Z,18.80
2018-08-09T02:10:23.786Z,18.80
2018-08-09T02:11:23.746Z,18.83
2018-08-09T02:12:23.672Z,18.84
2018-08-09T02:13:23.622Z,18.80
2018-08-09T02:14:23.577Z,18.83
2018-08-09T02:15:23.531Z,18.74
2018-08-09T02:16:23.553Z,18.74
2018-08-09T02:17:23.442Z,18.86
2018-08-09T02:18:23.398Z,18.86
2018-08-09T02:19:23.355Z,18.84
2018-08-09T02:20:23.311Z,18.81
2018-08-09T02:21:23.317Z,18.89
2018-08-09T02:22:23.222Z,18.83
2018-08-09T02:23:23.182Z,18.90
2018-08-09T02:24:23.137Z,18.93
2018-08-09T02:25:23.089Z,18.89
2018-08-09T02:26:23.077Z,18.83
2018-08-09T02:27:22.999Z,18.74
2018-08-09T02:28:22.958Z,18.77
2018-08-09T02:29:22.915Z,18.78
2018-08-09T02:30:22.898Z,18.74
2018-08-09T02:31:22.822Z,18.77
2018-08-09T02:32:22.778Z,18.81
2018-08-09T02:33:22.736Z,18.75
2018-08-09T02:34:22.691Z,18.63
2018-08-09T02:35:22.674Z,18.63
2018-08-09T02:36:22.602Z,18.56
2018-08-09T02:37:22.558Z,18.60
2018-08-09T02:38:22.510Z,18.49
2018-08-09T02:39:22.499Z,18.49
2018-08-09T02:40:22.455Z,18.49
2018-08-09T02:41:22.382Z,18.49
2018-08-09T02:42:22.333Z,18.49
2018-08-09T02:43:22.291Z,18.53
2018-08-09T02:44:22.245Z,18.45
2018-08-09T02:45:22.234Z,18.53
2018-08-09T02:46:22.158Z,18.40
2018-08-09T02:47:22.146Z,18.49
2018-08-09T02:48:22.070Z,18.37
2018-08-09T02:49:22.026Z,18.31
2018-08-09T02:50:22.009Z,18.33
2018-08-09T02:51:21.935Z,18.23
2018-08-09T02:52:21.889Z,18.23
2018-08-09T02:53:21.843Z,18.20
2018-08-09T02:54:21.799Z,18.22
2018-08-09T02:55:21.787Z,18.25
2018-08-09T02:56:21.742Z,18.23
2018-08-09T02:57:21.668Z,18.19
2018-08-09T02:58:21.624Z,18.10
2018-08-09T02:59:21.576Z,18.11
2018-08-09T03:00:21.535Z,18.04
2018-08-09T03:01:21.519Z,18.01
2018-08-09T03:02:21.445Z,18.01
2018-08-09T03:03:21.406Z,17.97
2018-08-09T03:04:21.355Z,18.04
2018-08-09T03:05:21.312Z,17.98
2018-08-09T03:06:21.320Z,18.01
2018-08-09T03:07:21.219Z,17.98
2018-08-09T03:08:21.176Z,18.01
2018-08-09T03:09:21.140Z,18.00
2018-08-09T03:10:21.084Z,17.97
2018-08-09T03:11:21.084Z,17.97
2018-08-09T03:12:21.003Z,18.11
2018-08-09T03:13:20.953Z,18.13
2018-08-09T03:14:20.910Z,18.07
2018-08-09T03:15:20.862Z,18.10
2018-08-09T03:16:20.858Z,18.03
2018-08-09T03:17:20.804Z,18.05
2018-08-09T03:18:20.731Z,18.01
2018-08-09T03:19:20.682Z,18.03
2018-08-09T03:20:20.643Z,17.86
2018-08-09T03:21:20.626Z,17.85
2018-08-09T03:22:20.552Z,17.85
2018-08-09T03:23:20.504Z,17.78
2018-08-09T03:24:20.541Z,17.74
2018-08-09T03:25:20.415Z,17.71
2018-08-09T03:26:20.371Z,17.70
2018-08-09T03:27:20.327Z,17.72
2018-08-09T03:28:20.309Z,17.71
2018-08-09T03:29:20.267Z,17.68
2018-08-09T03:30:20.190Z,17.64
2018-08-09T03:31:20.148Z,17.74
2018-08-09T03:32:20.104Z,17.68
2018-08-09T03:33:20.088Z,17.78
2018-08-09T03:34:20.012Z,17.78
2018-08-09T03:35:19.965Z,17.74
2018-08-09T03:36:19.920Z,17.89
2018-08-09T03:37:19.875Z,17.87
2018-08-09T03:38:19.869Z,17.87
2018-08-09T03:39:19.786Z,18.00
2018-08-09T03:40:19.741Z,18.05
2018-08-09T03:41:19.732Z,18.03
2018-08-09T03:42:19.651Z,17.95
2018-08-09T03:43:19.605Z,18.03
2018-08-09T03:44:19.562Z,17.98
2018-08-09T03:45:19.516Z,18.13
2018-08-09T03:46:19.502Z,18.15
2018-08-09T03:47:19.424Z,18.05
2018-08-09T03:48:19.421Z,18.10
2018-08-09T03:49:19.390Z,18.05
2018-08-09T03:50:19.294Z,17.98
2018-08-09T03:51:19.244Z,18.07
2018-08-09T03:52:19.204Z,17.97
2018-08-09T03:53:19.188Z,17.95
2018-08-09T03:54:19.112Z,17.87
2018-08-09T03:55:19.066Z,17.86
2018-08-09T03:56:19.022Z,17.80
2018-08-09T03:57:19.010Z,17.82
2018-08-09T03:58:18.982Z,17.80
2018-08-09T03:59:18.886Z,17.83
2018-08-09T04:00:18.842Z,17.87
2018-08-09T04:01:18.797Z,17.80
2018-08-09T04:02:18.788Z,17.78
2018-08-09T04:03:18.707Z,17.72
2018-08-09T04:04:18.661Z,17.76
2018-08-09T04:05:18.616Z,17.71
2018-08-09T04:06:18.570Z,17.72
2018-08-09T04:07:18.557Z,17.76
2018-08-09T04:08:18.480Z,17.79
2018-08-09T04:09:18.434Z,17.83
2018-08-09T04:10:18.391Z,17.89
2018-08-09T04:11:18.382Z,17.94
2018-08-09T04:12:18.300Z,17.86
2018-08-09T04:13:18.256Z,17.94
2018-08-09T04:14:18.208Z,17.89
2018-08-09T04:15:18.164Z,17.92
2018-08-09T04:16:18.151Z,17.87
2018-08-09T04:17:18.075Z,17.90
2018-08-09T04:18:18.030Z,17.78
2018-08-09T04:19:17.984Z,17.79
2018-08-09T04:20:17.946Z,17.76
2018-08-09T04:21:17.926Z,17.65
2018-08-09T04:22:17.885Z,17.56
2018-08-09T04:23:17.813Z,17.56
2018-08-09T04:24:17.763Z,17.59
2018-08-09T04:25:17.746Z,17.56
2018-08-09T04:26:17.668Z,17.60
2018-08-09T04:27:17.625Z,17.54
2018-08-09T04:28:17.609Z,17.59
2018-08-09T04:29:17.534Z,17.76
2018-08-09T04:30:17.492Z,17.70
2018-08-09T04:31:17.445Z,17.76
2018-08-09T04:32:17.396Z,17.71
2018-08-09T04:33:17.381Z,17.76
2018-08-09T04:34:17.309Z,17.76
2018-08-09T04:35:17.261Z,17.78
2018-08-09T04:36:17.251Z,17.80
2018-08-09T04:37:17.172Z,17.76
2018-08-09T04:38:17.130Z,17.74
2018-08-09T04:39:17.082Z,17.76
2018-08-09T04:40:17.036Z,17.78
2018-08-09T04:41:17.022Z,17.83
2018-08-09T04:42:16.984Z,17.80
2018-08-09T04:43:16.900Z,17.80
2018-08-09T04:44:16.854Z,17.86
2018-08-09T04:45:16.809Z,17.90
2018-08-09T04:46:16.766Z,17.89
2018-08-09T04:47:16.755Z,17.95
2018-08-09T04:48:16.717Z,17.97
2018-08-09T04:49:16.682Z,17.97
2018-08-09T04:50:16.583Z,18.01
2018-08-09T04:51:16.537Z,18.08
2018-08-09T04:52:16.494Z,18.11
2018-08-09T04:53:16.479Z,18.20
2018-08-09T04:54:16.403Z,18.25
2018-08-09T04:55:16.356Z,18.23
2018-08-09T04:56:16.313Z,18.20
2018-08-09T04:57:16.268Z,18.16
2018-08-09T04:58:16.265Z,18.26
2018-08-09T04:59:16.209Z,18.34
2018-08-09T05:00:16.132Z,18.43
2018-08-09T05:01:16.087Z,18.47
2018-08-09T05:02:16.043Z,18.45
2018-08-09T05:03:15.995Z,18.49
2018-08-09T05:04:15.981Z,18.70
2018-08-09T05:05:15.912Z,18.75
2018-08-09T05:06:15.863Z,18.71
2018-08-09T05:07:15.816Z,18.86
2018-08-09T05:08:15.805Z,18.83
2018-08-09T05:09:15.762Z,18.86
2018-08-09T05:10:15.713Z,18.96
2018-08-09T05:11:15.639Z,19.00
2018-08-09T05:12:15.592Z,19.00
2018-08-09T05:13:15.551Z,19.07
2018-08-09T05:14:15.542Z,19.09
2018-08-09T05:15:15.458Z,19.21
2018-08-09T05:16:15.412Z,19.22
2018-08-09T05:17:15.368Z,19.31
2018-08-09T05:18:15.325Z,19.27
2018-08-09T05:19:15.314Z,19.22
2018-08-09T05:20:15.236Z,19.26
2018-08-09T05:21:15.191Z,19.31
2018-08-09T05:22:15.145Z,19.34
2018-08-09T05:23:15.216Z,19.34
2018-08-09T05:24:15.089Z,19.48
2018-08-09T05:25:15.044Z,19.51
2018-08-09T05:26:14.968Z,19.48
2018-08-09T05:27:14.921Z,19.59
2018-08-09T05:28:14.878Z,19.59
2018-08-09T05:29:14.835Z,19.58
2018-08-09T05:30:14.822Z,19.73
2018-08-09T05:31:14.749Z,19.79
2018-08-09T05:32:14.730Z,19.88
2018-08-09T05:33:14.655Z,19.84
2018-08-09T05:34:14.661Z,19.88
2018-08-09T05:35:14.568Z,19.99
2018-08-09T05:36:14.556Z,19.92
2018-08-09T05:37:14.478Z,20.02
2018-08-09T05:38:14.438Z,20.03
2018-08-09T05:39:14.422Z,20.03
2018-08-09T05:40:14.355Z,20.18
2018-08-09T05:41:14.301Z,20.09
2018-08-09T05:42:14.293Z,20.03
2018-08-09T05:43:14.213Z,20.04
2018-08-09T05:44:14.172Z,20.09
2018-08-09T05:45:14.169Z,20.14
2018-08-09T05:46:14.083Z,20.14
2018-08-09T05:47:14.036Z,20.22
2018-08-09T05:48:13.992Z,20.25
2018-08-09T05:49:13.950Z,20.24
2018-08-09T05:50:13.937Z,20.22
2018-08-09T05:51:13.859Z,20.25
2018-08-09T05:52:13.819Z,20.26
2018-08-09T05:53:13.794Z,20.43
2018-08-09T05:54:13.761Z,20.36
2018-08-09T05:55:13.687Z,20.50
2018-08-09T05:56:13.640Z,20.51
2018-08-09T05:57:13.598Z,20.52
2018-08-09T05:58:13.557Z,20.60
2018-08-09T05:59:13.541Z,20.55
2018-08-09T06:00:13.469Z,20.72
2018-08-09T06:01:13.423Z,20.74
2018-08-09T06:02:13.379Z,20.72
2018-08-09T06:03:13.333Z,20.85
2018-08-09T06:04:13.324Z,20.81
2018-08-09T06:05:13.247Z,20.81
2018-08-09T06:06:13.204Z,20.85
2018-08-09T06:07:13.194Z,21.00
2018-08-09T06:08:13.117Z,20.99
2018-08-09T06:09:13.072Z,21.07
2018-08-09T06:10:13.031Z,21.05
2018-08-09T06:11:12.985Z,21.15
2018-08-09T06:12:12.996Z,21.18
2018-08-09T06:13:12.899Z,21.24
2018-08-09T06:14:12.857Z,21.29
2018-08-09T06:15:12.813Z,21.32
2018-08-09T06:16:12.768Z,21.37
2018-08-09T06:17:12.757Z,21.43
2018-08-09T06:18:12.682Z,21.46
2018-08-09T06:19:12.639Z,21.52
2018-08-09T06:20:12.598Z,21.66
2018-08-09T06:21:12.597Z,21.66
2018-08-09T06:22:12.510Z,21.70
2018-08-09T06:23:12.523Z,21.79
2018-08-09T06:24:12.427Z,21.95
2018-08-09T06:25:12.381Z,21.92
2018-08-09T06:26:12.362Z,21.99
2018-08-09T06:27:12.296Z,21.98
2018-08-09T06:28:12.292Z,22.07
2018-08-09T06:29:12.214Z,22.11
2018-08-09T06:30:12.173Z,22.23
2018-08-09T06:31:12.128Z,22.22
2018-08-09T06:32:12.087Z,22.25
2018-08-09T06:33:12.082Z,22.22
2018-08-09T06:34:11.994Z,22.29
2018-08-09T06:35:11.950Z,22.30
2018-08-09T06:36:11.907Z,22.28
2018-08-09T06:37:11.865Z,22.35
2018-08-09T06:38:11.864Z,22.44
2018-08-09T06:39:11.779Z,22.41
2018-08-09T06:40:11.739Z,22.43
2018-08-09T06:41:11.697Z,22.29
2018-08-09T06:42:11.652Z,22.29
2018-08-09T06:43:11.643Z,22.35
2018-08-09T06:44:11.567Z,22.35
2018-08-09T06:45:11.541Z,22.44
2018-08-09T06:46:11.519Z,22.48
2018-08-09T06:47:11.446Z,22.39
2018-08-09T06:48:11.399Z,22.51
2018-08-09T06:49:11.382Z,22.48
2018-08-09T06:50:11.356Z,22.45
2018-08-09T06:51:11.271Z,22.51
2018-08-09T06:52:11.228Z,22.55
2018-08-09T06:53:11.191Z,22.63
2018-08-09T06:54:11.146Z,22.68
2018-08-09T06:55:11.133Z,22.66
2018-08-09T06:56:11.115Z,22.68
2018-08-09T06:57:11.018Z,22.76
2018-08-09T06:58:11.015Z,22.80
2018-08-09T06:59:10.932Z,22.78
2018-08-09T07:00:10.891Z,22.81
2018-08-09T07:01:10.879Z,22.81
2018-08-09T07:02:10.809Z,22.84
2018-08-09T07:03:10.795Z,22.91
2018-08-09T07:04:10.722Z,22.93
2018-08-09T07:05:10.680Z,22.99
2018-08-09T07:06:10.640Z,23.00
2018-08-09T07:07:10.629Z,23.08
2018-08-09T07:08:10.588Z,23.18
2018-08-09T07:09:10.512Z,23.17
2018-08-09T07:10:10.469Z,23.25
2018-08-09T07:11:10.430Z,23.28
2018-08-09T07:12:10.387Z,23.39
2018-08-09T07:13:10.376Z,23.48
2018-08-09T07:14:10.302Z,23.50
2018-08-09T07:15:10.261Z,23.66
2018-08-09T07:16:10.265Z,23.77
2018-08-09T07:17:10.175Z,23.95
2018-08-09T07:18:10.177Z,24.16
2018-08-09T07:19:10.090Z,24.36
2018-08-09T07:20:10.055Z,24.57
2018-08-09T07:21:10.012Z,24.92
2018-08-09T07:22:09.967Z,25.14
2018-08-09T07:23:09.956Z,25.25
2018-08-09T07:24:09.883Z,25.43
2018-08-09T07:25:09.843Z,25.41
2018-08-09T07:26:09.801Z,25.48
2018-08-09T07:27:09.793Z,25.53
2018-08-09T07:28:09.722Z,25.58
2018-08-09T07:29:09.713Z,25.68
2018-08-09T07:30:09.636Z,25.75
2018-08-09T07:31:09.636Z,25.80
2018-08-09T07:32:09.557Z,25.93
2018-08-09T07:33:09.513Z,25.93
2018-08-09T07:34:09.475Z,25.88
2018-08-09T07:35:09.431Z,26.03
2018-08-09T07:36:09.423Z,26.09
2018-08-09T07:37:09.350Z,26.05
2018-08-09T07:38:09.341Z,26.15
2018-08-09T07:39:09.271Z,26.00
2018-08-09T07:40:09.228Z,26.13
2018-08-09T07:41:09.186Z,26.21
2018-08-09T07:42:09.146Z,26.19
2018-08-09T07:43:09.138Z,26.22
2018-08-09T07:44:09.065Z,26.22
2018-08-09T07:45:09.026Z,26.21
2018-08-09T07:46:08.983Z,26.31
2018-08-09T07:47:08.941Z,26.38
2018-08-09T07:48:08.949Z,26.38
2018-08-09T07:49:08.863Z,26.45
2018-08-09T07:50:08.823Z,26.56
2018-08-09T07:51:08.807Z,26.63
2018-08-09T07:52:08.746Z,26.71
2018-08-09T07:53:08.735Z,26.74
2018-08-09T07:54:08.661Z,26.62
2018-08-09T07:55:08.619Z,26.62
2018-08-09T07:56:08.580Z,26.62
2018-08-09T07:57:08.645Z,26.75
2018-08-09T07:58:08.501Z,26.80
2018-08-09T07:59:08.463Z,26.92
2018-08-09T08:00:08.419Z,26.83
2018-08-09T08:01:08.381Z,26.70
2018-08-09T08:02:08.378Z,26.68
2018-08-09T08:03:08.301Z,26.80
2018-08-09T08:04:08.260Z,26.92
2018-08-09T08:05:08.219Z,26.96
2018-08-09T08:06:08.231Z,26.92
2018-08-09T08:07:08.170Z,27.08
2018-08-09T08:08:08.103Z,26.99
2018-08-09T08:09:08.063Z,27.02
2018-08-09T08:10:08.024Z,27.12
2018-08-09T08:11:08.023Z,27.14
2018-08-09T08:12:07.945Z,27.11
2018-08-09T08:13:07.901Z,27.20
2018-08-09T08:14:07.864Z,27.05
2018-08-09T08:15:07.861Z,26.99
2018-08-09T08:16:07.819Z,26.97
2018-08-09T08:17:07.743Z,26.93
2018-08-09T08:18:07.728Z,26.90
2018-08-09T08:19:07.664Z,27.10
2018-08-09T08:20:07.636Z,27.12
2018-08-09T08:21:07.650Z,27.51
2018-08-09T08:22:07.551Z,27.32
2018-08-09T08:23:07.536Z,27.37
2018-08-09T08:24:07.468Z,27.37
2018-08-09T08:25:07.426Z,27.33
2018-08-09T08:26:07.389Z,27.20
2018-08-09T08:27:07.347Z,27.32
2018-08-09T08:28:07.346Z,27.51
2018-08-09T08:29:07.272Z,27.63
2018-08-09T08:30:07.232Z,27.65
2018-08-09T08:31:07.189Z,27.75
2018-08-09T08:32:07.155Z,27.82
2018-08-09T08:33:07.144Z,27.82
2018-08-09T08:34:07.073Z,27.78
2018-08-09T08:35:07.032Z,27.63
2018-08-09T08:36:07.006Z,27.67
2018-08-09T08:37:06.954Z,27.65
2018-08-09T08:38:06.947Z,27.65
2018-08-09T08:39:06.907Z,27.59
2018-08-09T08:40:06.836Z,27.64
2018-08-09T08:41:06.795Z,27.82
2018-08-09T08:42:06.758Z,27.87
2018-08-09T08:43:06.753Z,27.96
2018-08-09T08:44:06.681Z,28.14
2018-08-09T08:45:06.664Z,28.26
2018-08-09T08:46:06.636Z,28.32
2018-08-09T08:47:06.561Z,28.45
2018-08-09T08:48:06.521Z,28.60
2018-08-09T08:49:06.484Z,28.79
2018-08-09T08:50:06.449Z,29.12
2018-08-09T08:51:06.440Z,29.47
2018-08-09T08:52:06.368Z,29.61
2018-08-09T08:53:06.351Z,29.98
2018-08-09T08:54:06.291Z,30.10
2018-08-09T08:55:06.341Z,29.90
2018-08-09T08:56:06.216Z,29.78
2018-08-09T08:57:06.178Z,29.91
2018-08-09T08:58:06.179Z,29.95
2018-08-09T08:59:06.134Z,30.15
2018-08-09T09:00:06.094Z,30.40
2018-08-09T09:01:06.081Z,30.30
2018-08-09T09:02:05.986Z,30.02
2018-08-09T09:03:05.949Z,29.90
2018-08-09T09:04:05.947Z,29.76
2018-08-09T09:05:05.913Z,29.53
2018-08-09T09:06:05.834Z,29.56
2018-08-09T09:07:05.835Z,29.38
2018-08-09T09:08:05.768Z,29.22
2018-08-09T09:09:05.771Z,29.42
2018-08-09T09:10:05.680Z,29.35
2018-08-09T09:11:05.641Z,29.45
2018-08-09T09:12:05.606Z,29.61
2018-08-09T09:13:05.574Z,29.71
2018-08-09T09:14:05.561Z,29.56
2018-08-09T09:15:05.492Z,29.32
2018-08-09T09:16:05.454Z,29.44
2018-08-09T09:17:05.417Z,29.42
2018-08-09T09:18:05.411Z,29.47
2018-08-09T09:19:05.347Z,29.50
2018-08-09T09:20:05.301Z,29.72
2018-08-09T09:21:05.313Z,29.75
2018-08-09T09:22:05.228Z,29.56
2018-08-09T09:23:05.188Z,29.51
2018-08-09T09:24:05.150Z,29.76
2018-08-09T09:25:05.112Z,29.91
2018-08-09T09:26:05.107Z,30.21
2018-08-09T09:27:05.096Z,30.40
2018-08-09T09:28:04.996Z,30.39
2018-08-09T09:29:04.993Z,30.39
2018-08-09T09:30:04.924Z,30.19
2018-08-09T09:31:04.884Z,30.31
2018-08-09T09:32:04.879Z,30.31
2018-08-09T09:33:04.843Z,30.43
2018-08-09T09:34:04.771Z,30.09
2018-08-09T09:35:04.784Z,29.98
2018-08-09T09:36:04.694Z,30.05
2018-08-09T09:37:04.690Z,30.15
2018-08-09T09:38:04.651Z,30.21
2018-08-09T09:39:04.581Z,30.55
2018-08-09T09:40:04.543Z,30.53
2018-08-09T09:41:04.508Z,30.55
2018-08-09T09:42:04.468Z,30.44
2018-08-09T09:43:04.462Z,30.62
2018-08-09T09:44:04.393Z,30.66
2018-08-09T09:45:04.355Z,30.62
2018-08-09T09:46:04.353Z,30.66
2018-08-09T09:47:04.278Z,30.68
2018-08-09T09:48:04.267Z,30.28
2018-08-09T09:49:04.204Z,30.40
2018-08-09T09:50:04.168Z,30.21
2018-08-09T09:51:04.163Z,30.37
2018-08-09T09:52:04.094Z,30.61
2018-08-09T09:53:04.060Z,30.57
2018-08-09T09:54:04.152Z,30.24
2018-08-09T09:55:03.983Z,30.00
2018-08-09T09:56:03.959Z,30.23
2018-08-09T09:57:03.910Z,30.27
2018-08-09T09:58:03.869Z,30.43
2018-08-09T09:59:03.865Z,30.40
2018-08-09T10:00:03.794Z,30.63
2018-08-09T10:01:03.779Z,30.69
2018-08-09T10:02:03.763Z,30.85
2018-08-09T10:03:03.684Z,31.00
2018-08-09T10:04:03.643Z,31.15
2018-08-09T10:05:03.657Z,31.27
2018-08-09T10:06:03.569Z,31.59
2018-08-09T10:07:03.575Z,31.69
2018-08-09T10:08:03.496Z,31.56
2018-08-09T10:09:03.461Z,31.44
2018-08-09T10:10:03.473Z,31.14
2018-08-09T10:11:03.388Z,31.00
2018-08-09T10:12:03.347Z,30.83
2018-08-09T10:13:03.310Z,30.83
2018-08-09T10:14:03.272Z,30.77
2018-08-09T10:15:03.268Z,30.84
2018-08-09T10:16:03.196Z,30.68
2018-08-09T10:17:03.160Z,30.80
2018-08-09T10:18:03.125Z,30.72
2018-08-09T10:19:03.111Z,31.00
2018-08-09T10:20:03.049Z,31.09
2018-08-09T10:21:03.015Z,31.29
2018-08-09T10:22:02.976Z,31.70
2018-08-09T10:23:02.981Z,31.71
2018-08-09T10:24:02.901Z,31.70
2018-08-09T10:25:02.864Z,31.71
2018-08-09T10:26:02.829Z,31.73
2018-08-09T10:27:02.788Z,31.54
2018-08-09T10:28:02.784Z,31.06
2018-08-09T10:29:02.719Z,30.78
2018-08-09T10:30:02.680Z,30.94
2018-08-09T10:31:02.641Z,31.25
2018-08-09T10:32:02.638Z,31.51
2018-08-09T10:33:02.570Z,31.62
2018-08-09T10:34:02.532Z,31.93
2018-08-09T10:35:02.497Z,32.21
2018-08-09T10:36:02.459Z,32.30
2018-08-09T10:37:02.453Z,32.40
2018-08-09T10:38:02.388Z,32.34
2018-08-09T10:39:02.350Z,32.16
2018-08-09T10:40:02.309Z,32.12
2018-08-09T10:41:02.275Z,31.99
2018-08-09T10:42:02.268Z,31.81
2018-08-09T10:43:02.198Z,31.51
2018-08-09T10:44:02.164Z,31.34
2018-08-09T10:45:02.127Z,31.33
2018-08-09T10:46:02.124Z,31.25
2018-08-09T10:47:02.052Z,31.28
2018-08-09T10:48:02.054Z,31.31
2018-08-09T10:49:02.029Z,31.47
2018-08-09T10:50:01.946Z,31.85
2018-08-09T10:51:01.954Z,31.96
2018-08-09T10:52:01.872Z,31.85
2018-08-09T10:53:01.833Z,31.85
2018-08-09T10:54:01.829Z,31.96
2018-08-09T10:55:01.763Z,31.69
2018-08-09T10:56:01.726Z,31.22
2018-08-09T10:57:01.690Z,31.42
2018-08-09T10:58:01.647Z,31.76
2018-08-09T10:59:01.645Z,31.87
2018-08-09T11:00:01.582Z,32.04
2018-08-09T11:01:01.544Z,32.23
2018-08-09T11:02:01.503Z,32.67
2018-08-09T11:03:01.498Z,32.58
2018-08-09T11:04:01.431Z,32.36
2018-08-09T11:05:01.396Z,32.51
2018-08-09T11:06:01.365Z,32.30
2018-08-09T11:07:01.323Z,32.15
2018-08-09T11:08:01.316Z,32.26
2018-08-09T11:09:01.248Z,31.99
2018-08-09T11:10:01.225Z,31.64
2018-08-09T11:11:01.174Z,31.58
2018-08-09T11:12:01.137Z,31.89
2018-08-09T11:13:01.215Z,31.92
2018-08-09T11:14:01.067Z,32.41
2018-08-09T11:15:01.043Z,32.48
2018-08-09T11:16:00.994Z,32.41
2018-08-09T11:17:00.967Z,32.37
2018-08-09T11:18:00.953Z,32.59
2018-08-09T11:19:00.916Z,32.59
2018-08-09T11:20:00.847Z,32.67
2018-08-09T11:21:00.810Z,32.74
2018-08-09T11:22:00.776Z,32.71
2018-08-09T11:23:00.739Z,32.46
2018-08-09T11:24:00.737Z,32.31
2018-08-09T11:25:00.666Z,32.23
2018-08-09T11:26:00.630Z,32.03
2018-08-09T11:27:00.592Z,32.09
2018-08-09T11:28:00.591Z,32.23
2018-08-09T11:29:00.521Z,32.58
2018-08-09T11:30:00.484Z,32.75
2018-08-09T11:31:00.450Z,32.49
2018-08-09T11:32:00.423Z,32.31
2018-08-09T11:33:00.411Z,32.49
2018-08-09T11:34:00.360Z,32.78
2018-08-09T11:35:00.303Z,32.71
2018-08-09T11:36:00.268Z,32.46
2018-08-09T11:37:00.230Z,32.36
2018-08-09T11:38:00.228Z,32.53
2018-08-09T11:39:00.169Z,32.59
2018-08-09T11:40:00.121Z,32.92
2018-08-09T11:41:00.088Z,33.43
2018-08-09T11:42:00.051Z,33.59
2018-08-09T11:43:00.090Z,33.53
2018-08-09T11:43:59.977Z,33.34
2018-08-09T11:44:59.946Z,33.58
2018-08-09T11:45:59.904Z,33.64
2018-08-09T11:46:59.873Z,33.64
2018-08-09T11:47:59.866Z,33.96
2018-08-09T11:48:59.796Z,33.90
2018-08-09T11:49:59.762Z,33.81
2018-08-09T11:50:59.724Z,34.06
2018-08-09T11:51:59.693Z,33.49
2018-08-09T11:52:59.694Z,32.96
2018-08-09T11:53:59.621Z,32.60
2018-08-09T11:54:59.631Z,32.34
2018-08-09T11:55:59.553Z,32.09
2018-08-09T11:56:59.575Z,32.11
2018-08-09T11:57:59.479Z,32.23
2018-08-09T11:58:59.441Z,32.59
2018-08-09T11:59:59.436Z,32.67
2018-08-09T12:00:59.368Z,32.96
2018-08-09T12:01:59.334Z,33.05
2018-08-09T12:02:59.294Z,32.97
2018-08-09T12:03:59.263Z,32.97
2018-08-09T12:04:59.254Z,33.19
2018-08-09T12:05:59.219Z,33.80
2018-08-09T12:06:59.155Z,34.06
2018-08-09T12:07:59.117Z,33.59
2018-08-09T12:08:59.081Z,33.49
2018-08-09T12:09:59.043Z,33.45
2018-08-09T12:10:59.042Z,33.73
2018-08-09T12:11:58.973Z,33.80
2018-08-09T12:12:58.941Z,34.08
2018-08-09T12:13:58.899Z,34.08
2018-08-09T12:14:58.919Z,33.83
2018-08-09T12:15:58.828Z,33.40
2018-08-09T12:16:58.829Z,33.31
2018-08-09T12:17:58.758Z,33.39
2018-08-09T12:18:58.720Z,33.39
2018-08-09T12:19:58.685Z,33.46
2018-08-09T12:20:58.702Z,32.96
2018-08-09T12:21:58.646Z,32.89
2018-08-09T12:22:58.578Z,32.73
2018-08-09T12:23:58.540Z,32.93
2018-08-09T12:24:58.507Z,33.22
2018-08-09T12:25:58.476Z,32.93
2018-08-09T12:26:58.509Z,32.86
2018-08-09T12:27:58.400Z,32.78
2018-08-09T12:28:58.365Z,32.75
2018-08-09T12:29:58.331Z,32.89
2018-08-09T12:30:58.290Z,33.08
2018-08-09T12:31:58.308Z,33.17
2018-08-09T12:32:58.221Z,33.46
2018-08-09T12:33:58.184Z,33.92
2018-08-09T12:34:58.147Z,34.14
2018-08-09T12:35:58.110Z,34.10
2018-08-09T12:36:58.125Z,33.83
2018-08-09T12:37:58.081Z,33.53
2018-08-09T12:38:58.007Z,33.37
2018-08-09T12:39:57.971Z,33.04
2018-08-09T12:40:57.934Z,32.89
2018-08-09T12:41:57.898Z,32.75
2018-08-09T12:42:57.898Z,32.53
2018-08-09T12:43:57.829Z,32.33
2018-08-09T12:44:57.796Z,32.27
2018-08-09T12:45:57.790Z,32.46
2018-08-09T12:46:57.752Z,32.70
2018-08-09T12:47:57.717Z,32.77
2018-08-09T12:48:57.649Z,32.71
2018-08-09T12:49:57.612Z,32.67
2018-08-09T12:50:57.618Z,32.75
2018-08-09T12:51:57.545Z,32.90